Santana do Cariri, Brazil
Current Conditions -  °F | °C
As of 4:00 PM on Friday 28 Nov 2014 (Local Time) from SBJU Reporting Station
Clear Clear  
Wind Chill: 97°   Ceiling: Unl
Heat Index: 97°   Visibility: 6mi
Dew Point: 50°   Wind: 9mph
Humidity: 20%   Direction: 170°S
Pressure: 29.91"   Gusts: NA
Location:  7.19°S, 39.74°W
Report Text: SBJU 281900Z 17008KT CAVOK 36/10 Q1013
Loading
Personal Weather Stations






























Interactive Weather Map New forecast layout! Learn more

10-Day Weather Forecast

Advertisements
Track Severe Weather on mobile